sensor_id;sensor_type;location;lat;lon;timestamp;temperature;humidity
21035;DHT22;10676;50.848;3.272;2024-03-02T00:01:05;6.90;99.90
21035;DHT22;10676;50.848;3.272;2024-03-02T00:03:31;6.80;99.90
21035;DHT22;10676;50.848;3.272;2024-03-02T00:05:57;6.80;99.90
21035;DHT22;10676;50.848;3.272;2024-03-02T00:08:26;6.70;99.90
21035;DHT22;10676;50.848;3.272;2024-03-02T00:10:53;6.70;99.90
21035;DHT22;10676;50.848;3.272;2024-03-02T00:13:22;6.70;99.90
21035;DHT22;10676;50.848;3.272;2024-03-02T00:18:25;6.60;99.90
21035;DHT22;10676;50.848;3.272;2024-03-02T00:20:55;6.60;99.90
21035;DHT22;10676;50.848;3.272;2024-03-02T00:23:27;6.50;99.90
21035;DHT22;10676;50.848;3.272;2024-03-02T00:25:55;6.40;99.90
21035;DHT22;10676;50.848;3.272;2024-03-02T00:31:08;6.30;99.90
21035;DHT22;10676;50.848;3.272;2024-03-02T00:33:35;6.20;99.90
21035;DHT22;10676;50.848;3.272;2024-03-02T00:36:05;6.20;99.90
21035;DHT22;10676;50.848;3.272;2024-03-02T00:38:33;6.20;99.90
21035;DHT22;10676;50.848;3.272;2024-03-02T00:41:03;6.10;99.90
21035;DHT22;10676;50.848;3.272;2024-03-02T00:46:03;6.00;99.90
21035;DHT22;10676;50.848;3.272;2024-03-02T00:48:30;6.00;99.90
21035;DHT22;10676;50.848;3.272;2024-03-02T00:51:02;6.00;99.90
21035;DHT22;10676;50.848;3.272;2024-03-02T00:53:29;6.00;99.90
21035;DHT22;10676;50.848;3.272;2024-03-02T00:55:55;5.90;99.90
21035;DHT22;10676;50.848;3.272;2024-03-02T00:58:23;5.90;99.90
21035;DHT22;10676;50.848;3.272;2024-03-02T01:00:49;5.90;99.90
21035;DHT22;10676;50.848;3.272;2024-03-02T01:03:14;5.80;99.90
21035;DHT22;10676;50.848;3.272;2024-03-02T01:05:43;5.90;99.90
21035;DHT22;10676;50.848;3.272;2024-03-02T01:08:10;5.80;99.90
21035;DHT22;10676;50.848;3.272;2024-03-02T01:10:35;5.80;99.90
21035;DHT22;10676;50.848;3.272;2024-03-02T01:13:01;5.70;99.90
21035;DHT22;10676;50.848;3.272;2024-03-02T01:15:27;5.60;99.90
21035;DHT22;10676;50.848;3.272;2024-03-02T01:17:53;5.60;99.90
21035;DHT22;10676;50.848;3.272;2024-03-02T01:20:19;5.50;99.90
21035;DHT22;10676;50.848;3.272;2024-03-02T01:22:45;5.60;99.90
21035;DHT22;10676;50.848;3.272;2024-03-02T01:25:12;5.50;99.90
21035;DHT22;10676;50.848;3.272;2024-03-02T01:27:39;5.50;99.90
21035;DHT22;10676;50.848;3.272;2024-03-02T01:30:05;5.50;99.90
21035;DHT22;10676;50.848;3.272;2024-03-02T01:32:32;5.50;99.90
21035;DHT22;10676;50.848;3.272;2024-03-02T01:34:58;5.40;99.90
21035;DHT22;10676;50.848;3.272;2024-03-02T01:37:24;5.40;99.90
21035;DHT22;10676;50.848;3.272;2024-03-02T01:39:50;5.40;99.90
21035;DHT22;10676;50.848;3.272;2024-03-02T01:42:15;5.40;99.90
21035;DHT22;10676;50.848;3.272;2024-03-02T01:44:41;5.40;99.90
21035;DHT22;10676;50.848;3.272;2024-03-02T01:47:07;5.40;99.90
21035;DHT22;10676;50.848;3.272;2024-03-02T01:49:33;5.30;99.90
21035;DHT22;10676;50.848;3.272;2024-03-02T01:51:59;5.30;99.90
21035;DHT22;10676;50.848;3.272;2024-03-02T01:54:25;5.30;99.90
21035;DHT22;10676;50.848;3.272;2024-03-02T01:56:51;5.30;99.90
21035;DHT22;10676;50.848;3.272;2024-03-02T01:59:17;5.30;99.90
21035;DHT22;10676;50.848;3.272;2024-03-02T02:01:42;5.30;99.90
21035;DHT22;10676;50.848;3.272;2024-03-02T02:04:09;5.30;99.90
21035;DHT22;10676;50.848;3.272;2024-03-02T02:06:34;5.30;99.90
21035;DHT22;10676;50.848;3.272;2024-03-02T02:09:00;5.30;99.90
21035;DHT22;10676;50.848;3.272;2024-03-02T02:11:26;5.30;99.90
21035;DHT22;10676;50.848;3.272;2024-03-02T02:13:52;5.30;99.90
21035;DHT22;10676;50.848;3.272;2024-03-02T02:16:21;5.20;99.90
21035;DHT22;10676;50.848;3.272;2024-03-02T02:18:48;5.20;99.90
21035;DHT22;10676;50.848;3.272;2024-03-02T02:21:13;5.30;99.90
21035;DHT22;10676;50.848;3.272;2024-03-02T02:23:39;5.20;99.90
21035;DHT22;10676;50.848;3.272;2024-03-02T02:26:05;5.20;99.90
21035;DHT22;10676;50.848;3.272;2024-03-02T02:28:31;5.20;99.90
21035;DHT22;10676;50.848;3.272;2024-03-02T02:30:56;5.20;99.90
21035;DHT22;10676;50.848;3.272;2024-03-02T02:33:23;5.20;99.90
21035;DHT22;10676;50.848;3.272;2024-03-02T02:35:48;5.20;99.90
21035;DHT22;10676;50.848;3.272;2024-03-02T02:38:14;5.20;99.90
21035;DHT22;10676;50.848;3.272;2024-03-02T02:40:41;5.10;99.90
21035;DHT22;10676;50.848;3.272;2024-03-02T02:43:06;5.10;99.90
21035;DHT22;10676;50.848;3.272;2024-03-02T02:45:32;5.10;99.90
21035;DHT22;10676;50.848;3.272;2024-03-02T02:47:58;5.10;99.90
21035;DHT22;10676;50.848;3.272;2024-03-02T02:50:23;5.10;99.90
21035;DHT22;10676;50.848;3.272;2024-03-02T02:52:49;5.00;99.90
21035;DHT22;10676;50.848;3.272;2024-03-02T02:55:15;5.10;99.90
21035;DHT22;10676;50.848;3.272;2024-03-02T02:57:42;5.00;99.90
21035;DHT22;10676;50.848;3.272;2024-03-02T03:00:14;5.10;99.90
21035;DHT22;10676;50.848;3.272;2024-03-02T03:02:41;5.10;99.90
21035;DHT22;10676;50.848;3.272;2024-03-02T03:05:08;5.10;99.90
21035;DHT22;10676;50.848;3.272;2024-03-02T03:07:34;5.00;99.90
21035;DHT22;10676;50.848;3.272;2024-03-02T03:10:00;5.10;99.90
21035;DHT22;10676;50.848;3.272;2024-03-02T03:12:26;5.00;99.90
21035;DHT22;10676;50.848;3.272;2024-03-02T03:14:52;5.00;99.90
21035;DHT22;10676;50.848;3.272;2024-03-02T03:17:18;5.00;99.90
21035;DHT22;10676;50.848;3.272;2024-03-02T03:19:43;5.00;99.90
21035;DHT22;10676;50.848;3.272;2024-03-02T03:22:09;5.00;99.90
21035;DHT22;10676;50.848;3.272;2024-03-02T03:24:35;5.00;99.90
21035;DHT22;10676;50.848;3.272;2024-03-02T03:27:01;5.00;99.90
21035;DHT22;10676;50.848;3.272;2024-03-02T03:29:26;5.00;99.90
21035;DHT22;10676;50.848;3.272;2024-03-02T03:31:52;5.00;99.90
21035;DHT22;10676;50.848;3.272;2024-03-02T03:34:18;5.00;99.90
21035;DHT22;10676;50.848;3.272;2024-03-02T03:36:43;5.00;99.90
21035;DHT22;10676;50.848;3.272;2024-03-02T03:39:09;5.00;99.90
21035;DHT22;10676;50.848;3.272;2024-03-02T03:41:35;4.90;99.90
21035;DHT22;10676;50.848;3.272;2024-03-02T03:44:00;4.90;99.90
21035;DHT22;10676;50.848;3.272;2024-03-02T03:46:26;4.90;99.90
21035;DHT22;10676;50.848;3.272;2024-03-02T03:48:52;4.90;99.90
21035;DHT22;10676;50.848;3.272;2024-03-02T03:51:17;4.90;99.90
21035;DHT22;10676;50.848;3.272;2024-03-02T03:53:43;4.90;99.90
21035;DHT22;10676;50.848;3.272;2024-03-02T03:56:09;4.90;99.90
21035;DHT22;10676;50.848;3.272;2024-03-02T03:58:35;4.90;99.90
21035;DHT22;10676;50.848;3.272;2024-03-02T04:01:00;4.90;99.90
21035;DHT22;10676;50.848;3.272;2024-03-02T04:03:26;4.90;99.90
21035;DHT22;10676;50.848;3.272;2024-03-02T04:05:52;4.90;99.90
21035;DHT22;10676;50.848;3.272;2024-03-02T04:08:18;4.90;99.90
21035;DHT22;10676;50.848;3.272;2024-03-02T04:10:43;5.00;99.90
21035;DHT22;10676;50.848;3.272;2024-03-02T04:13:09;4.90;99.90
21035;DHT22;10676;50.848;3.272;2024-03-02T04:15:35;5.00;99.90
21035;DHT22;10676;50.848;3.272;2024-03-02T04:18:00;5.00;99.90
21035;DHT22;10676;50.848;3.272;2024-03-02T04:20:27;4.90;99.90
21035;DHT22;10676;50.848;3.272;2024-03-02T04:22:53;4.90;99.90
21035;DHT22;10676;50.848;3.272;2024-03-02T04:25:19;4.90;99.90
21035;DHT22;10676;50.848;3.272;2024-03-02T04:27:45;4.90;99.90
21035;DHT22;10676;50.848;3.272;2024-03-02T04:30:11;4.90;99.90
21035;DHT22;10676;50.848;3.272;2024-03-02T04:32:37;4.90;99.90
21035;DHT22;10676;50.848;3.272;2024-03-02T04:35:03;4.90;99.90
21035;DHT22;10676;50.848;3.272;2024-03-02T04:37:29;4.80;99.90
21035;DHT22;10676;50.848;3.272;2024-03-02T04:39:56;4.80;99.90
21035;DHT22;10676;50.848;3.272;2024-03-02T04:42:22;4.80;99.90
21035;DHT22;10676;50.848;3.272;2024-03-02T04:44:48;4.80;99.90
21035;DHT22;10676;50.848;3.272;2024-03-02T04:47:15;4.80;99.90
21035;DHT22;10676;50.848;3.272;2024-03-02T04:49:41;4.80;99.90
21035;DHT22;10676;50.848;3.272;2024-03-02T04:52:07;4.80;99.90
21035;DHT22;10676;50.848;3.272;2024-03-02T04:54:32;4.80;99.90
21035;DHT22;10676;50.848;3.272;2024-03-02T04:57:00;4.80;99.90
21035;DHT22;10676;50.848;3.272;2024-03-02T04:59:27;4.80;99.90
21035;DHT22;10676;50.848;3.272;2024-03-02T05:01:53;4.80;99.90
21035;DHT22;10676;50.848;3.272;2024-03-02T05:04:19;4.80;99.90
21035;DHT22;10676;50.848;3.272;2024-03-02T05:06:44;4.70;99.90
21035;DHT22;10676;50.848;3.272;2024-03-02T05:09:16;4.80;99.90
21035;DHT22;10676;50.848;3.272;2024-03-02T05:11:41;4.80;99.90
21035;DHT22;10676;50.848;3.272;2024-03-02T05:14:10;4.80;99.90
21035;DHT22;10676;50.848;3.272;2024-03-02T05:16:36;4.70;99.90
21035;DHT22;10676;50.848;3.272;2024-03-02T05:19:05;4.70;99.90
21035;DHT22;10676;50.848;3.272;2024-03-02T05:21:35;4.70;99.90
21035;DHT22;10676;50.848;3.272;2024-03-02T05:24:00;4.70;99.90
21035;DHT22;10676;50.848;3.272;2024-03-02T05:26:27;4.70;99.90
21035;DHT22;10676;50.848;3.272;2024-03-02T05:28:53;4.70;99.90
21035;DHT22;10676;50.848;3.272;2024-03-02T05:31:19;4.70;99.90
21035;DHT22;10676;50.848;3.272;2024-03-02T05:33:45;4.70;99.90
21035;DHT22;10676;50.848;3.272;2024-03-02T05:36:10;4.70;99.90
21035;DHT22;10676;50.848;3.272;2024-03-02T05:38:36;4.80;99.90
21035;DHT22;10676;50.848;3.272;2024-03-02T05:41:03;4.70;99.90
21035;DHT22;10676;50.848;3.272;2024-03-02T05:43:29;4.70;99.90
21035;DHT22;10676;50.848;3.272;2024-03-02T05:45:54;4.80;99.90
21035;DHT22;10676;50.848;3.272;2024-03-02T05:48:20;4.70;99.90
21035;DHT22;10676;50.848;3.272;2024-03-02T05:50:46;4.70;99.90
21035;DHT22;10676;50.848;3.272;2024-03-02T05:53:12;4.60;99.90
21035;DHT22;10676;50.848;3.272;2024-03-02T05:55:37;4.60;99.90
21035;DHT22;10676;50.848;3.272;2024-03-02T05:58:03;4.60;99.90
21035;DHT22;10676;50.848;3.272;2024-03-02T06:00:32;4.60;99.90
21035;DHT22;10676;50.848;3.272;2024-03-02T06:02:57;4.60;99.90
21035;DHT22;10676;50.848;3.272;2024-03-02T06:05:23;4.60;99.90
21035;DHT22;10676;50.848;3.272;2024-03-02T06:07:50;4.60;99.90
21035;DHT22;10676;50.848;3.272;2024-03-02T06:10:16;4.70;99.90
21035;DHT22;10676;50.848;3.272;2024-03-02T06:12:41;4.70;99.90
21035;DHT22;10676;50.848;3.272;2024-03-02T06:15:07;4.70;99.90
21035;DHT22;10676;50.848;3.272;2024-03-02T06:17:35;4.70;99.90
21035;DHT22;10676;50.848;3.272;2024-03-02T06:20:01;4.70;99.90
21035;DHT22;10676;50.848;3.272;2024-03-02T06:22:27;4.70;99.90
21035;DHT22;10676;50.848;3.272;2024-03-02T06:24:53;4.70;99.90
21035;DHT22;10676;50.848;3.272;2024-03-02T06:27:19;4.70;99.90
21035;DHT22;10676;50.848;3.272;2024-03-02T06:29:45;4.70;99.90
21035;DHT22;10676;50.848;3.272;2024-03-02T06:32:11;4.70;99.90
21035;DHT22;10676;50.848;3.272;2024-03-02T06:34:36;4.70;99.90
21035;DHT22;10676;50.848;3.272;2024-03-02T06:37:02;4.70;99.90
21035;DHT22;10676;50.848;3.272;2024-03-02T06:39:28;4.80;99.90
21035;DHT22;10676;50.848;3.272;2024-03-02T06:41:54;4.80;99.90
21035;DHT22;10676;50.848;3.272;2024-03-02T06:44:19;4.80;99.90
21035;DHT22;10676;50.848;3.272;2024-03-02T06:46:46;4.80;99.90
21035;DHT22;10676;50.848;3.272;2024-03-02T06:49:12;4.80;99.90
21035;DHT22;10676;50.848;3.272;2024-03-02T06:51:38;4.90;99.90
21035;DHT22;10676;50.848;3.272;2024-03-02T06:54:03;5.00;99.90
21035;DHT22;10676;50.848;3.272;2024-03-02T06:56:29;5.20;99.90
21035;DHT22;10676;50.848;3.272;2024-03-02T06:58:56;5.40;99.90
21035;DHT22;10676;50.848;3.272;2024-03-02T07:01:21;5.80;99.90
21035;DHT22;10676;50.848;3.272;2024-03-02T07:03:47;6.20;99.90
21035;DHT22;10676;50.848;3.272;2024-03-02T07:06:13;6.60;99.90
21035;DHT22;10676;50.848;3.272;2024-03-02T07:08:38;7.00;99.90
21035;DHT22;10676;50.848;3.272;2024-03-02T07:11:04;7.40;99.90
21035;DHT22;10676;50.848;3.272;2024-03-02T07:13:30;7.90;99.90
21035;DHT22;10676;50.848;3.272;2024-03-02T07:15:55;8.50;99.90
21035;DHT22;10676;50.848;3.272;2024-03-02T07:18:36;9.20;99.90
21035;DHT22;10676;50.848;3.272;2024-03-02T07:21:10;9.90;99.90
21035;DHT22;10676;50.848;3.272;2024-03-02T07:23:36;10.60;99.90
21035;DHT22;10676;50.848;3.272;2024-03-02T07:26:02;11.20;99.90
21035;DHT22;10676;50.848;3.272;2024-03-02T07:28:28;11.90;99.90
21035;DHT22;10676;50.848;3.272;2024-03-02T07:31:04;12.40;99.90
21035;DHT22;10676;50.848;3.272;2024-03-02T07:33:30;12.80;99.90
21035;DHT22;10676;50.848;3.272;2024-03-02T07:35:57;13.00;99.90
21035;DHT22;10676;50.848;3.272;2024-03-02T07:38:24;13.10;99.90
21035;DHT22;10676;50.848;3.272;2024-03-02T07:40:50;13.20;99.90
21035;DHT22;10676;50.848;3.272;2024-03-02T07:43:17;13.20;99.90
21035;DHT22;10676;50.848;3.272;2024-03-02T07:45:43;13.30;99.90
21035;DHT22;10676;50.848;3.272;2024-03-02T07:48:08;13.60;99.90
21035;DHT22;10676;50.848;3.272;2024-03-02T07:50:34;14.10;99.90
21035;DHT22;10676;50.848;3.272;2024-03-02T07:53:03;14.60;99.90
21035;DHT22;10676;50.848;3.272;2024-03-02T07:55:29;15.20;99.90
21035;DHT22;10676;50.848;3.272;2024-03-02T07:57:59;15.70;99.90
21035;DHT22;10676;50.848;3.272;2024-03-02T08:00:25;16.30;99.90
21035;DHT22;10676;50.848;3.272;2024-03-02T08:02:51;16.90;99.90
21035;DHT22;10676;50.848;3.272;2024-03-02T08:05:18;17.40;99.90
21035;DHT22;10676;50.848;3.272;2024-03-02T08:07:46;17.80;99.90
21035;DHT22;10676;50.848;3.272;2024-03-02T08:10:13;18.20;99.90
21035;DHT22;10676;50.848;3.272;2024-03-02T08:12:39;18.50;99.90
21035;DHT22;10676;50.848;3.272;2024-03-02T08:15:05;18.80;99.90
21035;DHT22;10676;50.848;3.272;2024-03-02T08:17:31;19.00;99.90
21035;DHT22;10676;50.848;3.272;2024-03-02T08:19:57;19.30;99.90
21035;DHT22;10676;50.848;3.272;2024-03-02T08:22:24;19.50;99.90
21035;DHT22;10676;50.848;3.272;2024-03-02T08:24:53;19.50;99.90
21035;DHT22;10676;50.848;3.272;2024-03-02T08:27:20;19.30;99.90
21035;DHT22;10676;50.848;3.272;2024-03-02T08:29:45;18.80;99.90
21035;DHT22;10676;50.848;3.272;2024-03-02T08:32:11;18.10;99.90
21035;DHT22;10676;50.848;3.272;2024-03-02T08:34:38;17.20;99.90
21035;DHT22;10676;50.848;3.272;2024-03-02T08:37:05;16.20;99.90
21035;DHT22;10676;50.848;3.272;2024-03-02T08:39:31;15.30;99.90
21035;DHT22;10676;50.848;3.272;2024-03-02T08:41:56;14.50;99.90
21035;DHT22;10676;50.848;3.272;2024-03-02T08:44:22;13.80;99.90
21035;DHT22;10676;50.848;3.272;2024-03-02T08:46:48;13.40;99.90
21035;DHT22;10676;50.848;3.272;2024-03-02T08:49:14;13.30;99.90
21035;DHT22;10676;50.848;3.272;2024-03-02T08:51:39;13.40;99.90
21035;DHT22;10676;50.848;3.272;2024-03-02T08:54:05;13.40;99.90
21035;DHT22;10676;50.848;3.272;2024-03-02T08:56:31;13.20;99.90
21035;DHT22;10676;50.848;3.272;2024-03-02T08:58:57;13.00;99.90
21035;DHT22;10676;50.848;3.272;2024-03-02T09:01:22;12.90;99.90
21035;DHT22;10676;50.848;3.272;2024-03-02T09:03:48;12.90;99.90
21035;DHT22;10676;50.848;3.272;2024-03-02T09:06:15;12.90;99.90
21035;DHT22;10676;50.848;3.272;2024-03-02T09:08:44;12.90;99.90
21035;DHT22;10676;50.848;3.272;2024-03-02T09:11:10;12.80;99.90
21035;DHT22;10676;50.848;3.272;2024-03-02T09:13:37;12.70;99.90
21035;DHT22;10676;50.848;3.272;2024-03-02T09:16:03;12.60;99.90
21035;DHT22;10676;50.848;3.272;2024-03-02T09:18:30;12.50;99.90
21035;DHT22;10676;50.848;3.272;2024-03-02T09:20:57;12.50;99.90
21035;DHT22;10676;50.848;3.272;2024-03-02T09:23:22;12.60;99.90
21035;DHT22;10676;50.848;3.272;2024-03-02T09:25:48;12.70;99.90
21035;DHT22;10676;50.848;3.272;2024-03-02T09:28:15;12.80;99.90
21035;DHT22;10676;50.848;3.272;2024-03-02T09:30:41;13.00;99.90
21035;DHT22;10676;50.848;3.272;2024-03-02T09:33:07;13.20;99.90
21035;DHT22;10676;50.848;3.272;2024-03-02T09:35:32;13.40;99.90
21035;DHT22;10676;50.848;3.272;2024-03-02T09:37:58;13.50;99.90
21035;DHT22;10676;50.848;3.272;2024-03-02T09:40:24;13.70;99.90
21035;DHT22;10676;50.848;3.272;2024-03-02T09:42:51;14.00;99.90
21035;DHT22;10676;50.848;3.272;2024-03-02T09:45:24;14.40;99.90
21035;DHT22;10676;50.848;3.272;2024-03-02T09:47:49;14.70;99.90
21035;DHT22;10676;50.848;3.272;2024-03-02T09:50:15;15.30;99.90
21035;DHT22;10676;50.848;3.272;2024-03-02T09:52:48;16.30;99.90
21035;DHT22;10676;50.848;3.272;2024-03-02T09:55:15;17.40;99.90
21035;DHT22;10676;50.848;3.272;2024-03-02T09:57:42;18.00;99.90
21035;DHT22;10676;50.848;3.272;2024-03-02T10:00:08;18.10;99.90
21035;DHT22;10676;50.848;3.272;2024-03-02T10:02:34;18.30;99.90
21035;DHT22;10676;50.848;3.272;2024-03-02T10:05:00;18.80;99.90
21035;DHT22;10676;50.848;3.272;2024-03-02T10:07:25;19.20;99.90
21035;DHT22;10676;50.848;3.272;2024-03-02T10:09:51;19.40;99.90
21035;DHT22;10676;50.848;3.272;2024-03-02T10:12:18;19.10;99.90
21035;DHT22;10676;50.848;3.272;2024-03-02T10:14:44;18.60;99.90
21035;DHT22;10676;50.848;3.272;2024-03-02T10:17:12;18.10;99.90
21035;DHT22;10676;50.848;3.272;2024-03-02T10:19:39;17.60;99.90
21035;DHT22;10676;50.848;3.272;2024-03-02T10:22:06;17.20;99.90
21035;DHT22;10676;50.848;3.272;2024-03-02T10:24:40;16.90;99.90
21035;DHT22;10676;50.848;3.272;2024-03-02T10:27:08;16.60;99.90
21035;DHT22;10676;50.848;3.272;2024-03-02T10:29:37;16.40;99.90
21035;DHT22;10676;50.848;3.272;2024-03-02T10:32:04;16.20;99.90
21035;DHT22;10676;50.848;3.272;2024-03-02T10:34:32;16.00;99.90
21035;DHT22;10676;50.848;3.272;2024-03-02T10:36:58;15.80;99.90
21035;DHT22;10676;50.848;3.272;2024-03-02T10:39:26;15.70;99.90
21035;DHT22;10676;50.848;3.272;2024-03-02T10:41:52;15.50;99.90
21035;DHT22;10676;50.848;3.272;2024-03-02T10:44:19;15.40;99.90
21035;DHT22;10676;50.848;3.272;2024-03-02T10:46:45;15.30;99.90
21035;DHT22;10676;50.848;3.272;2024-03-02T10:49:12;15.20;99.90
21035;DHT22;10676;50.848;3.272;2024-03-02T10:51:38;15.00;99.90
21035;DHT22;10676;50.848;3.272;2024-03-02T10:54:04;14.80;99.90
21035;DHT22;10676;50.848;3.272;2024-03-02T10:56:41;14.70;99.90
21035;DHT22;10676;50.848;3.272;2024-03-02T10:59:27;14.50;99.90
21035;DHT22;10676;50.848;3.272;2024-03-02T11:02:01;14.40;99.90
21035;DHT22;10676;50.848;3.272;2024-03-02T11:04:29;14.40;99.90
21035;DHT22;10676;50.848;3.272;2024-03-02T11:07:09;14.40;99.90
21035;DHT22;10676;50.848;3.272;2024-03-02T11:09:40;14.50;99.90
21035;DHT22;10676;50.848;3.272;2024-03-02T11:12:09;14.50;99.90
21035;DHT22;10676;50.848;3.272;2024-03-02T11:14:41;14.60;99.90
21035;DHT22;10676;50.848;3.272;2024-03-02T11:17:10;14.50;99.90
21035;DHT22;10676;50.848;3.272;2024-03-02T11:19:40;14.50;99.90
21035;DHT22;10676;50.848;3.272;2024-03-02T11:22:06;14.60;99.90
21035;DHT22;10676;50.848;3.272;2024-03-02T11:24:33;14.50;99.90
21035;DHT22;10676;50.848;3.272;2024-03-02T11:27:04;14.60;99.90
21035;DHT22;10676;50.848;3.272;2024-03-02T11:32:14;14.60;99.90
21035;DHT22;10676;50.848;3.272;2024-03-02T11:34:46;14.80;99.90
21035;DHT22;10676;50.848;3.272;2024-03-02T11:37:13;15.00;99.90
21035;DHT22;10676;50.848;3.272;2024-03-02T11:39:44;15.20;99.90
21035;DHT22;10676;50.848;3.272;2024-03-02T11:42:11;15.20;99.90
21035;DHT22;10676;50.848;3.272;2024-03-02T11:44:58;15.20;99.90
21035;DHT22;10676;50.848;3.272;2024-03-02T11:47:31;15.20;99.90
21035;DHT22;10676;50.848;3.272;2024-03-02T11:49:59;15.00;99.90
21035;DHT22;10676;50.848;3.272;2024-03-02T11:52:25;14.70;99.90
21035;DHT22;10676;50.848;3.272;2024-03-02T11:54:53;14.40;99.90
21035;DHT22;10676;50.848;3.272;2024-03-02T11:57:22;14.00;99.90
21035;DHT22;10676;50.848;3.272;2024-03-02T11:59:49;13.70;99.90
21035;DHT22;10676;50.848;3.272;2024-03-02T12:02:20;13.40;99.90
21035;DHT22;10676;50.848;3.272;2024-03-02T12:04:48;13.20;99.90
21035;DHT22;10676;50.848;3.272;2024-03-02T12:07:23;12.90;99.90
21035;DHT22;10676;50.848;3.272;2024-03-02T12:09:49;12.80;99.90
21035;DHT22;10676;50.848;3.272;2024-03-02T12:12:24;12.60;99.90
21035;DHT22;10676;50.848;3.272;2024-03-02T12:14:53;12.50;99.90
21035;DHT22;10676;50.848;3.272;2024-03-02T12:17:21;12.40;99.90
21035;DHT22;10676;50.848;3.272;2024-03-02T12:19:47;12.30;99.90
21035;DHT22;10676;50.848;3.272;2024-03-02T12:22:14;12.20;99.90
21035;DHT22;10676;50.848;3.272;2024-03-02T12:24:41;12.10;99.90
21035;DHT22;10676;50.848;3.272;2024-03-02T12:27:07;12.00;99.90
21035;DHT22;10676;50.848;3.272;2024-03-02T12:29:34;11.90;99.90
21035;DHT22;10676;50.848;3.272;2024-03-02T12:32:00;11.80;99.90
21035;DHT22;10676;50.848;3.272;2024-03-02T12:34:27;11.80;99.90
21035;DHT22;10676;50.848;3.272;2024-03-02T12:36:53;11.70;99.90
21035;DHT22;10676;50.848;3.272;2024-03-02T12:39:19;11.60;99.90
21035;DHT22;10676;50.848;3.272;2024-03-02T12:41:55;11.60;99.90
21035;DHT22;10676;50.848;3.272;2024-03-02T12:44:20;11.60;99.90
21035;DHT22;10676;50.848;3.272;2024-03-02T12:46:47;11.60;99.90
21035;DHT22;10676;50.848;3.272;2024-03-02T12:49:14;11.50;99.90
21035;DHT22;10676;50.848;3.272;2024-03-02T12:51:42;11.50;99.90
21035;DHT22;10676;50.848;3.272;2024-03-02T12:54:09;11.50;99.90
21035;DHT22;10676;50.848;3.272;2024-03-02T12:56:37;11.40;99.90
21035;DHT22;10676;50.848;3.272;2024-03-02T12:59:03;11.40;99.90
21035;DHT22;10676;50.848;3.272;2024-03-02T13:01:29;11.30;99.90
21035;DHT22;10676;50.848;3.272;2024-03-02T13:03:57;11.30;99.90
21035;DHT22;10676;50.848;3.272;2024-03-02T13:06:23;11.30;99.90
21035;DHT22;10676;50.848;3.272;2024-03-02T13:08:50;11.40;99.90
21035;DHT22;10676;50.848;3.272;2024-03-02T13:11:16;11.40;99.90
21035;DHT22;10676;50.848;3.272;2024-03-02T13:13:42;11.50;99.90
21035;DHT22;10676;50.848;3.272;2024-03-02T13:16:11;11.60;99.90
21035;DHT22;10676;50.848;3.272;2024-03-02T13:18:41;11.60;99.90
21035;DHT22;10676;50.848;3.272;2024-03-02T13:21:08;11.60;99.90
21035;DHT22;10676;50.848;3.272;2024-03-02T13:23:36;11.60;99.90
21035;DHT22;10676;50.848;3.272;2024-03-02T13:26:02;11.60;99.90
21035;DHT22;10676;50.848;3.272;2024-03-02T13:28:28;11.70;99.90
21035;DHT22;10676;50.848;3.272;2024-03-02T13:30:54;11.90;99.90
21035;DHT22;10676;50.848;3.272;2024-03-02T13:33:20;12.00;99.90
21035;DHT22;10676;50.848;3.272;2024-03-02T13:35:51;12.20;99.90
21035;DHT22;10676;50.848;3.272;2024-03-02T13:38:20;12.50;99.90
21035;DHT22;10676;50.848;3.272;2024-03-02T13:40:49;12.70;99.90
21035;DHT22;10676;50.848;3.272;2024-03-02T13:43:17;12.70;99.90
21035;DHT22;10676;50.848;3.272;2024-03-02T13:45:44;12.80;99.90
21035;DHT22;10676;50.848;3.272;2024-03-02T13:48:10;12.80;99.90
21035;DHT22;10676;50.848;3.272;2024-03-02T13:50:36;12.70;99.90
21035;DHT22;10676;50.848;3.272;2024-03-02T13:53:01;12.60;99.90
21035;DHT22;10676;50.848;3.272;2024-03-02T13:55:28;12.50;99.90
21035;DHT22;10676;50.848;3.272;2024-03-02T13:57:54;12.40;99.90
21035;DHT22;10676;50.848;3.272;2024-03-02T14:00:20;12.30;99.90
21035;DHT22;10676;50.848;3.272;2024-03-02T14:02:46;12.20;99.90
21035;DHT22;10676;50.848;3.272;2024-03-02T14:05:12;12.20;99.90
21035;DHT22;10676;50.848;3.272;2024-03-02T14:07:39;12.10;99.90
21035;DHT22;10676;50.848;3.272;2024-03-02T14:10:05;12.00;99.90
21035;DHT22;10676;50.848;3.272;2024-03-02T14:12:31;12.00;99.90
21035;DHT22;10676;50.848;3.272;2024-03-02T14:14:57;11.90;99.90
21035;DHT22;10676;50.848;3.272;2024-03-02T14:17:28;11.90;99.90
21035;DHT22;10676;50.848;3.272;2024-03-02T14:19:53;11.80;99.90
21035;DHT22;10676;50.848;3.272;2024-03-02T14:22:22;11.70;99.90
21035;DHT22;10676;50.848;3.272;2024-03-02T14:24:47;11.60;99.90
21035;DHT22;10676;50.848;3.272;2024-03-02T14:27:14;11.50;99.90
21035;DHT22;10676;50.848;3.272;2024-03-02T14:29:43;11.50;99.90
21035;DHT22;10676;50.848;3.272;2024-03-02T14:32:09;11.50;99.90
21035;DHT22;10676;50.848;3.272;2024-03-02T14:34:35;11.50;99.90
21035;DHT22;10676;50.848;3.272;2024-03-02T14:37:00;11.50;99.90
21035;DHT22;10676;50.848;3.272;2024-03-02T14:39:26;11.60;99.90
21035;DHT22;10676;50.848;3.272;2024-03-02T14:41:53;11.60;99.90
21035;DHT22;10676;50.848;3.272;2024-03-02T14:44:20;11.60;99.90
21035;DHT22;10676;50.848;3.272;2024-03-02T14:46:50;11.70;99.90
21035;DHT22;10676;50.848;3.272;2024-03-02T14:49:16;11.80;99.90
21035;DHT22;10676;50.848;3.272;2024-03-02T14:51:42;11.80;99.90
21035;DHT22;10676;50.848;3.272;2024-03-02T14:54:08;11.80;99.90
21035;DHT22;10676;50.848;3.272;2024-03-02T14:56:33;11.90;99.90
21035;DHT22;10676;50.848;3.272;2024-03-02T14:58:59;11.90;99.90
21035;DHT22;10676;50.848;3.272;2024-03-02T15:01:25;11.90;99.90
21035;DHT22;10676;50.848;3.272;2024-03-02T15:03:51;11.90;99.90
21035;DHT22;10676;50.848;3.272;2024-03-02T15:06:17;11.90;99.90
21035;DHT22;10676;50.848;3.272;2024-03-02T15:08:44;11.90;99.90
21035;DHT22;10676;50.848;3.272;2024-03-02T15:11:12;11.90;99.90
21035;DHT22;10676;50.848;3.272;2024-03-02T15:13:38;11.90;99.90
21035;DHT22;10676;50.848;3.272;2024-03-02T15:16:05;11.90;99.90
21035;DHT22;10676;50.848;3.272;2024-03-02T15:18:31;11.80;99.90
21035;DHT22;10676;50.848;3.272;2024-03-02T15:20:57;11.80;99.90
21035;DHT22;10676;50.848;3.272;2024-03-02T15:23:22;11.60;99.90
21035;DHT22;10676;50.848;3.272;2024-03-02T15:25:49;11.30;99.90
21035;DHT22;10676;50.848;3.272;2024-03-02T15:28:15;11.00;99.90
21035;DHT22;10676;50.848;3.272;2024-03-02T15:30:41;10.80;99.90
21035;DHT22;10676;50.848;3.272;2024-03-02T15:33:06;10.60;99.90
21035;DHT22;10676;50.848;3.272;2024-03-02T15:35:32;10.50;99.90
21035;DHT22;10676;50.848;3.272;2024-03-02T15:37:58;10.30;99.90
21035;DHT22;10676;50.848;3.272;2024-03-02T15:40:24;10.10;99.90
21035;DHT22;10676;50.848;3.272;2024-03-02T15:42:50;10.00;99.90
21035;DHT22;10676;50.848;3.272;2024-03-02T15:45:15;9.80;99.90